createdAt,value
2022-11-12T00:02:05.698Z,52.28
2022-11-12T00:04:51.014Z,53.35
2022-11-12T00:07:36.761Z,54.58
2022-11-12T00:10:22.617Z,44.45
2022-11-12T00:13:08.789Z,45.13
2022-11-12T00:15:54.110Z,35.15
2022-11-12T00:18:39.580Z,34.13
2022-11-12T00:21:25.196Z,32.90
2022-11-12T00:24:10.627Z,32.38
2022-11-12T00:26:56.087Z,36.63
2022-11-12T00:29:41.536Z,31.83
2022-11-12T00:32:27.268Z,33.45
2022-11-12T00:35:14.179Z,36.40
2022-11-12T00:38:00.640Z,36.38
2022-11-12T00:40:46.066Z,45.05
2022-11-12T00:43:31.725Z,35.28
2022-11-12T00:46:16.974Z,30.17
2022-11-12T00:49:02.585Z,46.47
2022-11-12T00:51:48.852Z,52.85
2022-11-12T00:54:33.958Z,48.22
2022-11-12T00:57:19.567Z,41.83
2022-11-12T01:00:08.466Z,53.45
2022-11-12T01:02:53.700Z,68.15
2022-11-12T01:05:39.616Z,58.97
2022-11-12T01:08:25.513Z,87.07
2022-11-12T01:11:14.791Z,52.63
2022-11-12T01:14:05.799Z,73.88
2022-11-12T01:16:51.162Z,82.60
2022-11-12T01:19:36.664Z,63.00
2022-11-12T01:22:22.279Z,41.15
2022-11-12T01:25:08.097Z,45.80
2022-11-12T01:27:53.548Z,32.25
2022-11-12T01:30:39.124Z,30.73
2022-11-12T01:33:24.756Z,26.85
2022-11-12T01:36:10.883Z,24.02
2022-11-12T01:38:56.495Z,26.80
2022-11-12T01:41:42.537Z,25.38
2022-11-12T01:44:32.017Z,22.65
2022-11-12T01:47:28.730Z,20.98
2022-11-12T01:50:31.304Z,18.23
2022-11-12T01:53:16.739Z,20.70
2022-11-12T01:56:03.655Z,21.55
2022-11-12T01:58:59.423Z,22.25
2022-11-12T02:01:44.670Z,19.42
2022-11-12T02:04:31.296Z,24.20
2022-11-12T02:07:18.913Z,22.67
2022-11-12T02:10:05.765Z,23.77
2022-11-12T02:13:12.123Z,20.80
2022-11-12T02:15:58.360Z,20.63
2022-11-12T02:18:43.532Z,19.90
2022-11-12T02:21:30.472Z,19.17
2022-11-12T02:24:15.604Z,20.08
2022-11-12T02:27:01.650Z,20.25
2022-11-12T02:29:46.818Z,17.25
2022-11-12T02:32:32.196Z,21.25
2022-11-12T02:35:17.915Z,19.92
2022-11-12T02:38:04.144Z,20.52
2022-11-12T02:40:49.508Z,31.05
2022-11-12T02:43:35.101Z,29.80
2022-11-12T02:46:20.634Z,26.58
2022-11-12T02:49:06.107Z,27.52
2022-11-12T02:51:51.546Z,27.27
2022-11-12T02:54:37.120Z,23.77
2022-11-12T02:57:22.612Z,22.92
2022-11-12T03:00:11.254Z,19.80
2022-11-12T03:02:59.519Z,24.65
2022-11-12T03:05:46.054Z,23.15
2022-11-12T03:08:31.169Z,19.38
2022-11-12T03:11:17.402Z,19.77
2022-11-12T03:14:02.856Z,20.50
2022-11-12T03:16:47.982Z,19.50
2022-11-12T03:19:33.483Z,20.17
2022-11-12T03:22:18.988Z,18.25
2022-11-12T03:25:06.210Z,21.65
2022-11-12T03:28:02.806Z,23.33
2022-11-12T03:30:48.017Z,24.85
2022-11-12T03:33:33.426Z,22.38
2022-11-12T03:36:18.908Z,23.42
2022-11-12T03:39:04.552Z,24.33
2022-11-12T03:41:49.992Z,22.17
2022-11-12T03:44:35.461Z,31.00
2022-11-12T03:47:21.064Z,26.08
2022-11-12T03:50:07.205Z,23.20
2022-11-12T03:52:54.424Z,22.15
2022-11-12T03:55:40.444Z,23.55
2022-11-12T03:58:26.230Z,27.00
2022-11-12T04:01:12.070Z,20.88
2022-11-12T04:03:57.503Z,22.33
2022-11-12T04:07:01.704Z,20.63
2022-11-12T04:09:47.217Z,21.38
2022-11-12T04:12:51.326Z,20.08
2022-11-12T04:15:37.386Z,21.10
2022-11-12T04:18:41.038Z,22.08
2022-11-12T04:21:51.757Z,22.88
2022-11-12T04:24:58.499Z,22.25
2022-11-12T04:27:44.084Z,23.20
2022-11-12T04:30:29.539Z,20.98
2022-11-12T04:33:15.061Z,21.48
2022-11-12T04:36:00.622Z,21.85
2022-11-12T04:38:46.062Z,35.20
2022-11-12T04:41:50.178Z,26.73
2022-11-12T04:44:54.034Z,24.92
2022-11-12T04:47:41.178Z,29.75
2022-11-12T04:50:26.678Z,32.80
2022-11-12T04:53:12.228Z,41.67
2022-11-12T04:55:58.985Z,29.23
2022-11-12T04:58:45.096Z,32.47
2022-11-12T05:01:30.691Z,32.15
2022-11-12T05:04:16.390Z,29.25
2022-11-12T05:07:02.021Z,30.42
2022-11-12T05:09:47.748Z,23.98
2022-11-12T05:12:33.409Z,29.38
2022-11-12T05:15:19.027Z,27.88
2022-11-12T05:18:04.249Z,29.35
2022-11-12T05:20:51.383Z,27.67
2022-11-12T05:23:36.647Z,29.30
2022-11-12T05:26:22.357Z,30.92
2022-11-12T05:29:09.000Z,30.30
2022-11-12T05:31:55.416Z,26.77
2022-11-12T05:34:40.978Z,26.75
2022-11-12T05:37:26.191Z,27.23
2022-11-12T05:40:12.205Z,27.45
2022-11-12T05:42:57.789Z,30.30
2022-11-12T05:45:43.962Z,30.13
2022-11-12T05:48:30.004Z,35.80
2022-11-12T05:51:15.676Z,34.22
2022-11-12T05:54:01.557Z,34.03
2022-11-12T05:56:46.917Z,29.50
2022-11-12T05:59:32.284Z,42.55
2022-11-12T06:02:17.996Z,42.65
2022-11-12T06:05:03.441Z,44.08
2022-11-12T06:07:49.187Z,40.67
2022-11-12T06:10:35.011Z,35.63
2022-11-12T06:13:22.658Z,35.67
2022-11-12T06:16:08.584Z,38.40
2022-11-12T06:18:53.806Z,40.08
2022-11-12T06:21:39.290Z,39.97
2022-11-12T06:24:27.508Z,35.30
2022-11-12T06:27:16.462Z,36.05
2022-11-12T06:30:02.098Z,34.63
2022-11-12T06:32:48.862Z,37.38
2022-11-12T06:35:34.152Z,37.20
2022-11-12T06:38:19.495Z,35.00
2022-11-12T06:41:05.749Z,29.85
2022-11-12T06:43:51.066Z,33.95
2022-11-12T06:46:36.707Z,25.67
2022-11-12T06:49:22.089Z,25.73
2022-11-12T06:52:10.003Z,27.15
2022-11-12T06:54:57.605Z,25.90
2022-11-12T06:57:43.254Z,31.30
2022-11-12T07:00:28.801Z,31.05
2022-11-12T07:03:15.020Z,28.13
2022-11-12T07:06:08.681Z,30.10
2022-11-12T07:08:54.316Z,26.08
2022-11-12T07:11:39.597Z,26.60
2022-11-12T07:14:24.896Z,27.55
2022-11-12T07:17:10.207Z,26.55
2022-11-12T07:20:00.732Z,24.42
2022-11-12T07:22:48.932Z,24.73
2022-11-12T07:25:34.417Z,20.65
2022-11-12T07:28:19.802Z,24.77
2022-11-12T07:31:07.648Z,39.28
2022-11-12T07:33:53.612Z,53.15
2022-11-12T07:36:38.804Z,57.67
2022-11-12T07:39:24.482Z,78.60
2022-11-12T07:42:10.052Z,47.78
2022-11-12T07:44:55.661Z,70.32
2022-11-12T07:47:41.172Z,38.55
2022-11-12T07:50:26.676Z,49.20
2022-11-12T07:53:12.203Z,47.05
2022-11-12T07:55:59.711Z,35.60
2022-11-12T07:58:46.100Z,26.33
2022-11-12T08:01:40.145Z,23.95
2022-11-12T08:04:25.454Z,26.50
2022-11-12T08:07:10.875Z,22.88
2022-11-12T08:09:56.232Z,23.80
2022-11-12T08:12:41.939Z,20.98
2022-11-12T08:15:27.512Z,16.05
2022-11-12T08:18:14.118Z,15.32
2022-11-12T08:21:01.114Z,14.10
2022-11-12T08:23:46.564Z,20.23
2022-11-12T08:26:32.170Z,16.90
2022-11-12T08:29:17.517Z,15.23
2022-11-12T08:32:02.969Z,13.07
2022-11-12T08:34:48.359Z,13.88
2022-11-12T08:37:33.718Z,15.15
2022-11-12T08:40:19.398Z,11.18
2022-11-12T08:43:07.332Z,14.10
2022-11-12T08:45:52.970Z,13.90
2022-11-12T08:48:40.194Z,12.73
2022-11-12T08:51:25.493Z,10.90
2022-11-12T08:54:11.293Z,11.48
2022-11-12T08:56:56.832Z,10.60
2022-11-12T08:59:42.463Z,12.57
2022-11-12T09:02:28.072Z,14.60
2022-11-12T09:05:13.610Z,14.55
2022-11-12T09:08:20.240Z,12.55
2022-11-12T09:11:06.802Z,11.02
2022-11-12T09:13:53.906Z,12.57
2022-11-12T09:16:39.057Z,14.70
2022-11-12T09:19:24.592Z,12.60
2022-11-12T09:22:09.986Z,14.20
2022-11-12T09:24:55.584Z,13.20
2022-11-12T09:27:45.736Z,25.52
2022-11-12T09:30:35.028Z,12.07
2022-11-12T09:33:24.310Z,15.60
2022-11-12T09:36:10.089Z,29.42
2022-11-12T09:38:55.756Z,24.38
2022-11-12T09:41:42.697Z,18.75
2022-11-12T09:44:34.151Z,13.13
2022-11-12T09:47:34.275Z,17.10
2022-11-12T09:50:36.354Z,11.73
2022-11-12T09:53:46.739Z,10.05
2022-11-12T09:56:33.703Z,9.40
2022-11-12T09:59:19.260Z,10.98
2022-11-12T10:02:25.611Z,9.68
2022-11-12T10:05:48.330Z,8.65
2022-11-12T10:08:46.131Z,11.93
2022-11-12T10:11:54.388Z,10.55
2022-11-12T10:15:31.460Z,12.07
2022-11-12T10:18:48.473Z,10.75
2022-11-12T10:21:53.420Z,10.90
2022-11-12T10:24:41.738Z,10.18
2022-11-12T10:27:38.631Z,10.27
2022-11-12T10:30:25.359Z,11.27
2022-11-12T10:33:15.537Z,9.90
2022-11-12T10:36:12.091Z,12.80
2022-11-12T10:38:57.640Z,8.73
2022-11-12T10:41:42.712Z,7.70
2022-11-12T10:44:28.147Z,9.55
2022-11-12T10:47:38.910Z,7.82
2022-11-12T10:50:37.138Z,9.13
2022-11-12T10:53:37.704Z,9.38
2022-11-12T10:56:28.834Z,9.18
2022-11-12T10:59:20.170Z,9.93
2022-11-12T11:02:17.098Z,9.50
2022-11-12T11:05:35.953Z,9.73
2022-11-12T11:08:42.554Z,10.23
2022-11-12T11:11:30.186Z,8.75
2022-11-12T11:14:24.814Z,9.70
2022-11-12T11:17:18.060Z,9.02
2022-11-12T11:20:25.016Z,8.95
2022-11-12T11:23:32.477Z,8.82
2022-11-12T11:26:35.749Z,9.18
2022-11-12T11:29:29.503Z,11.77
2022-11-12T11:32:42.944Z,8.90
2022-11-12T11:35:28.314Z,11.98
2022-11-12T11:38:21.029Z,9.45
2022-11-12T11:41:15.228Z,9.82
2022-11-12T11:44:08.796Z,10.45
2022-11-12T11:47:08.196Z,9.93
2022-11-12T11:50:02.248Z,8.35
2022-11-12T11:53:22.563Z,8.88
2022-11-12T11:56:31.803Z,9.25
2022-11-12T11:59:43.614Z,10.88
2022-11-12T12:03:04.133Z,9.68
2022-11-12T12:06:23.916Z,10.52
2022-11-12T12:09:36.071Z,12.60
2022-11-12T12:12:24.629Z,9.75
2022-11-12T12:15:31.114Z,8.90
2022-11-12T12:18:38.550Z,9.50
2022-11-12T12:21:26.483Z,10.00
2022-11-12T12:24:25.909Z,9.27
2022-11-12T12:27:28.937Z,11.35
2022-11-12T12:30:25.086Z,10.35
2022-11-12T12:33:34.940Z,10.60
2022-11-12T12:36:36.424Z,12.07
2022-11-12T12:39:47.487Z,10.88
2022-11-12T12:42:57.654Z,10.68
2022-11-12T12:45:45.899Z,10.43
2022-11-12T12:48:41.962Z,10.57
2022-11-12T12:51:32.504Z,9.98
2022-11-12T12:54:36.138Z,9.50
2022-11-12T12:57:39.611Z,9.68
2022-11-12T13:00:36.941Z,9.10
2022-11-12T13:03:44.546Z,10.38
2022-11-12T13:06:37.258Z,11.50
2022-11-12T13:09:25.761Z,8.98
2022-11-12T13:12:11.388Z,10.82
2022-11-12T13:15:15.414Z,13.90
2022-11-12T13:18:01.185Z,12.63
2022-11-12T13:21:08.577Z,11.63
2022-11-12T13:24:12.403Z,10.57
2022-11-12T13:27:01.176Z,10.98
2022-11-12T13:29:47.965Z,10.73
2022-11-12T13:32:54.028Z,11.02
2022-11-12T13:35:39.877Z,12.27
2022-11-12T13:38:26.216Z,12.73
2022-11-12T13:41:11.773Z,10.82
2022-11-12T13:43:57.418Z,10.55
2022-11-12T13:46:44.280Z,12.77
2022-11-12T13:49:30.251Z,11.40
2022-11-12T13:52:18.683Z,11.52
2022-11-12T13:55:15.399Z,12.18
2022-11-12T13:58:01.139Z,11.77
2022-11-12T14:00:57.695Z,11.82
2022-11-12T14:03:49.169Z,10.52
2022-11-12T14:06:36.309Z,15.02
2022-11-12T14:09:50.904Z,15.50
2022-11-12T14:12:52.074Z,12.30
2022-11-12T14:16:16.893Z,12.93
2022-11-12T14:19:17.595Z,27.83
2022-11-12T14:22:18.733Z,18.48
2022-11-12T14:25:04.669Z,12.55
2022-11-12T14:27:53.146Z,15.90
2022-11-12T14:30:44.682Z,13.27
2022-11-12T14:33:32.214Z,12.50
2022-11-12T14:36:19.576Z,14.73
2022-11-12T14:39:06.441Z,12.82
2022-11-12T14:41:52.383Z,14.88
2022-11-12T14:44:38.665Z,12.05
2022-11-12T14:47:24.270Z,12.98
2022-11-12T14:50:30.075Z,13.57
2022-11-12T14:53:35.194Z,12.82
2022-11-12T14:56:35.597Z,13.02
2022-11-12T14:59:21.548Z,12.68
2022-11-12T15:02:32.244Z,16.25
2022-11-12T15:05:21.194Z,20.92
2022-11-12T15:08:11.684Z,20.05
2022-11-12T15:11:17.397Z,69.47
2022-11-12T15:14:05.933Z,42.50
2022-11-12T15:16:53.343Z,30.95
2022-11-12T15:19:42.187Z,18.00
2022-11-12T15:22:27.541Z,21.73
2022-11-12T15:25:24.069Z,23.10
2022-11-12T15:28:23.988Z,17.40
2022-11-12T15:31:18.776Z,15.77
2022-11-12T15:34:27.854Z,15.68
2022-11-12T15:37:19.577Z,19.60
2022-11-12T15:40:15.858Z,22.63
2022-11-12T15:43:02.192Z,24.38
2022-11-12T15:45:49.592Z,21.00
2022-11-12T15:48:35.077Z,20.10
2022-11-12T15:51:20.505Z,20.75
2022-11-12T15:54:06.113Z,22.08
2022-11-12T15:56:51.927Z,30.50
2022-11-12T15:59:37.495Z,31.92
2022-11-12T16:02:23.598Z,33.58
2022-11-12T16:05:18.964Z,34.80
2022-11-12T16:08:04.375Z,44.78
2022-11-12T16:10:50.365Z,35.30
2022-11-12T16:13:36.645Z,36.45
2022-11-12T16:16:21.887Z,35.88
2022-11-12T16:19:14.941Z,28.63
2022-11-12T16:22:03.870Z,41.85
2022-11-12T16:24:49.236Z,39.95
2022-11-12T16:27:36.244Z,40.03
2022-11-12T16:30:27.754Z,39.92
2022-11-12T16:33:14.642Z,36.53
2022-11-12T16:36:00.039Z,80.50
2022-11-12T16:38:46.655Z,91.15
2022-11-12T16:41:32.077Z,63.45
2022-11-12T16:44:17.539Z,66.65
2022-11-12T16:47:04.592Z,52.60
2022-11-12T16:49:50.438Z,48.00
2022-11-12T16:52:35.945Z,43.25
2022-11-12T16:55:21.906Z,47.08
2022-11-12T16:58:07.291Z,54.40
2022-11-12T17:00:53.422Z,54.90
2022-11-12T17:03:39.284Z,67.72
2022-11-12T17:06:33.860Z,65.45
2022-11-12T17:09:19.164Z,60.40
2022-11-12T17:12:04.767Z,48.67
2022-11-12T17:14:50.083Z,43.25
2022-11-12T17:17:35.713Z,46.08
2022-11-12T17:20:21.275Z,42.92
2022-11-12T17:23:06.699Z,46.13
2022-11-12T17:26:01.095Z,37.65
2022-11-12T17:28:48.311Z,46.17
2022-11-12T17:31:35.888Z,48.40
2022-11-12T17:34:21.145Z,40.05
2022-11-12T17:37:06.605Z,40.90
2022-11-12T17:39:52.255Z,45.08
2022-11-12T17:42:38.164Z,43.00
2022-11-12T17:45:23.753Z,50.63
2022-11-12T17:48:09.008Z,55.55
2022-11-12T17:51:05.765Z,56.50
2022-11-12T17:53:51.398Z,52.22
2022-11-12T17:56:37.387Z,54.40
2022-11-12T17:59:22.919Z,54.28
2022-11-12T18:02:13.489Z,49.40
2022-11-12T18:04:58.618Z,67.55
2022-11-12T18:07:44.336Z,70.50
2022-11-12T18:10:30.187Z,59.22
2022-11-12T18:13:15.728Z,59.15
2022-11-12T18:16:01.977Z,47.35
2022-11-12T18:18:47.805Z,56.42
2022-11-12T18:21:33.429Z,52.85
2022-11-12T18:24:19.193Z,64.65
2022-11-12T18:27:04.766Z,78.93
2022-11-12T18:29:50.263Z,76.93
2022-11-12T18:32:36.252Z,89.93
2022-11-12T18:35:25.834Z,82.35
2022-11-12T18:38:14.034Z,85.65
2022-11-12T18:41:08.033Z,78.88
2022-11-12T18:43:54.561Z,84.60
2022-11-12T18:46:39.794Z,86.72
2022-11-12T18:49:25.498Z,87.35
2022-11-12T18:52:11.210Z,80.72
2022-11-12T18:54:56.774Z,75.05
2022-11-12T18:57:42.349Z,73.78
2022-11-12T19:00:27.846Z,86.32
2022-11-12T19:03:13.539Z,92.90
2022-11-12T19:06:00.247Z,68.32
2022-11-12T19:08:45.624Z,62.60
2022-11-12T19:11:31.363Z,62.10
2022-11-12T19:14:16.622Z,60.50
2022-11-12T19:17:02.008Z,84.70
2022-11-12T19:19:47.385Z,70.60
2022-11-12T19:22:33.114Z,52.47
2022-11-12T19:25:18.826Z,46.22
2022-11-12T19:28:04.399Z,36.85
2022-11-12T19:30:49.958Z,43.47
2022-11-12T19:33:35.402Z,59.33
2022-11-12T19:36:25.554Z,41.40
2022-11-12T19:39:11.131Z,73.10
2022-11-12T19:41:56.492Z,72.80
2022-11-12T19:44:42.083Z,100.68
2022-11-12T19:47:27.491Z,89.82
2022-11-12T19:50:13.181Z,95.07
2022-11-12T19:52:58.524Z,44.92
2022-11-12T19:55:43.869Z,47.50
2022-11-12T19:58:31.741Z,45.42
2022-11-12T20:01:19.041Z,47.63
2022-11-12T20:04:04.744Z,45.65
2022-11-12T20:06:50.420Z,41.65
2022-11-12T20:09:35.936Z,65.15
2022-11-12T20:12:21.559Z,67.03
2022-11-12T20:15:07.301Z,65.63
2022-11-12T20:17:52.905Z,53.22
2022-11-12T20:20:38.327Z,43.05
2022-11-12T20:23:25.239Z,25.05
2022-11-12T20:26:12.895Z,30.35
2022-11-12T20:28:58.405Z,30.60
2022-11-12T20:31:44.408Z,30.58
2022-11-12T20:34:29.460Z,37.92
2022-11-12T20:37:14.982Z,32.90
2022-11-12T20:40:00.553Z,33.60
2022-11-12T20:42:46.109Z,34.58
2022-11-12T20:45:32.716Z,37.85
2022-11-12T20:48:20.096Z,42.83
2022-11-12T20:51:24.988Z,41.90
2022-11-12T20:54:11.231Z,39.90
2022-11-12T20:56:56.776Z,32.90
2022-11-12T20:59:43.226Z,54.60
2022-11-12T21:02:28.737Z,41.42
2022-11-12T21:05:14.238Z,44.70
2022-11-12T21:07:59.930Z,53.20
2022-11-12T21:10:49.825Z,39.20
2022-11-12T21:13:37.078Z,46.72
2022-11-12T21:16:22.651Z,41.90
2022-11-12T21:19:08.434Z,41.83
2022-11-12T21:21:53.867Z,35.75
2022-11-12T21:24:39.324Z,36.33
2022-11-12T21:27:24.750Z,34.33
2022-11-12T21:30:10.775Z,35.80
2022-11-12T21:32:56.706Z,28.83
2022-11-12T21:35:42.213Z,30.27
2022-11-12T21:38:28.590Z,39.22
2022-11-12T21:41:18.805Z,27.73
2022-11-12T21:44:04.023Z,24.23
2022-11-12T21:46:49.797Z,23.30
2022-11-12T21:49:35.062Z,23.27
2022-11-12T21:52:20.569Z,23.27
2022-11-12T21:55:06.752Z,24.63
2022-11-12T21:57:52.007Z,30.25
2022-11-12T22:00:42.387Z,22.02
2022-11-12T22:03:31.793Z,27.38
2022-11-12T22:06:18.303Z,28.60
2022-11-12T22:09:05.120Z,27.15
2022-11-12T22:11:50.944Z,26.55
2022-11-12T22:14:36.676Z,30.10
2022-11-12T22:17:22.056Z,40.30
2022-11-12T22:20:08.166Z,28.15
2022-11-12T22:22:53.664Z,28.63
2022-11-12T22:25:39.145Z,31.77
2022-11-12T22:28:25.743Z,33.67
2022-11-12T22:31:13.939Z,48.10
2022-11-12T22:34:01.207Z,38.80
2022-11-12T22:36:46.750Z,26.35
2022-11-12T22:39:32.245Z,37.95
2022-11-12T22:42:17.739Z,37.33
2022-11-12T22:45:03.430Z,34.30
2022-11-12T22:47:48.944Z,31.58
2022-11-12T22:50:34.573Z,30.52
2022-11-12T22:53:19.872Z,14.00
2022-11-12T22:56:07.948Z,13.35
2022-11-12T22:58:54.641Z,43.00
2022-11-12T23:01:40.162Z,34.88
2022-11-12T23:04:25.765Z,46.17
2022-11-12T23:07:11.230Z,43.83
2022-11-12T23:09:56.645Z,37.55
2022-11-12T23:12:42.254Z,39.05
2022-11-12T23:15:31.131Z,40.83
2022-11-12T23:18:16.552Z,45.53
2022-11-12T23:21:23.858Z,31.58
2022-11-12T23:24:09.442Z,25.42
2022-11-12T23:26:54.906Z,42.75
2022-11-12T23:29:40.343Z,34.80
2022-11-12T23:32:25.825Z,22.92
2022-11-12T23:35:11.475Z,18.65
2022-11-12T23:37:56.940Z,20.35
2022-11-12T23:40:42.620Z,18.65
2022-11-12T23:43:28.287Z,11.70
2022-11-12T23:46:13.935Z,14.77
2022-11-12T23:48:59.427Z,11.85
2022-11-12T23:51:44.874Z,13.85
2022-11-12T23:54:30.431Z,13.50
2022-11-12T23:57:16.016Z,16.88
